OEJN/JED METAR and TAF weather

Enter ICAO airport designator
Station Type Date Time Source
OEJN METAR 2019/02/16 07:00 UTC NOAA

OEJN 160700Z 02014KT CAVOK 22/05 Q1020 NOSIG


Station Type Date Time Source
OEJN Decoded METAR 2019/02/16 07:00 UTC NOAA

Jeddah King Abdul Aziz International Airport , Saudi Arabia (OEJN) 21-42N 039-11E 17M
Feb 16, 2019 - 02:00 AM EST / 2019.02.16 0700 UTC
Wind: from the NNE (020 degrees) at 16 MPH (14 KT):0
Visibility: greater than 7 mile(s):0
Temperature: 71 F (22 C)
Dew Point: 41 F (5 C)
Relative Humidity: 32%
Pressure (altimeter): 30.12 in. Hg (1020 hPa)
ob: OEJN 160700Z 02014KT CAVOK 22/05 Q1020 NOSIG
cycle: 7

Station Type Date Time Source
OEJN TAF 2019/02/16 06:03 UTC NOAA

TAF OEJN 160500Z 1606/1712 33010G20KT 8000 NSC
TEMPO 1606/1614 4000 DU BLDU
BECMG 1618/1620 03015KT


Example: see airport list